Time;durP1;ratioP1;P1;durP2;ratioP2;P2;SDS_P1;SDS_P2;PMS_P1;PMS_P2;Temp;Humidity;BMP_temperature;BMP_pressure;BME280_temperature;BME280_humidity;BME280_pressure;Samples;Min_cycle;Max_cycle;Signal;HPM_P1;HPM_P2
2023/07/10 00:01:27;;;;;;;94.38;52.92;;;18.00;99.90;;;;;;5135828;27;20160;-24
2023/07/10 00:03:53;;;;;;;89.25;50.42;;;17.90;99.90;;;;;;5135143;27;20062;-23
2023/07/10 00:06:20;;;;;;;80.55;40.45;;;17.90;99.90;;;;;;5136043;27;20039;-23
2023/07/10 00:08:46;;;;;;;71.72;41.45;;;17.90;99.90;;;;;;5108732;28;20036;-23
2023/07/10 00:11:29;;;;;;;78.38;42.67;;;17.90;99.90;;;;;;5121254;27;20055;-23
2023/07/10 00:13:55;;;;;;;88.13;45.45;;;17.80;99.90;;;;;;5116394;27;20053;-23
2023/07/10 00:16:22;;;;;;;54.95;33.55;;;17.70;99.90;;;;;;5134260;27;20048;-23
2023/07/10 00:18:49;;;;;;;60.47;38.08;;;17.90;99.90;;;;;;5115764;27;20104;-23
2023/07/10 00:21:17;;;;;;;44.13;26.27;;;17.70;99.90;;;;;;5112099;27;20061;-23
2023/07/10 00:23:43;;;;;;;46.53;26.52;;;17.80;99.90;;;;;;5112990;27;20055;-23
2023/07/10 00:26:19;;;;;;;63.05;32.58;;;17.60;99.90;;;;;;5099360;27;20107;-23
2023/07/10 00:28:46;;;;;;;70.63;35.85;;;17.80;99.90;;;;;;5133957;27;20047;-24
2023/07/10 00:31:13;;;;;;;62.30;29.70;;;17.90;99.90;;;;;;5135245;27;20051;-23
2023/07/10 00:33:39;;;;;;;68.13;33.53;;;17.70;99.90;;;;;;5117153;27;20055;-24
2023/07/10 00:36:29;;;;;;;61.53;32.50;;;17.70;99.90;;;;;;5135260;27;20120;-23
2023/07/10 00:38:56;;;;;;;105.97;46.28;;;17.70;99.90;;;;;;5135636;27;20051;-23
2023/07/10 00:41:25;;;;;;;113.32;45.65;;;17.70;99.90;;;;;;5135123;27;20039;-23
2023/07/10 00:43:56;;;;;;;149.85;57.50;;;17.90;99.90;;;;;;5117144;27;20299;-23
2023/07/10 00:46:35;;;;;;;135.40;59.70;;;17.90;99.90;;;;;;5134233;27;20043;-23
2023/07/10 00:49:22;;;;;;;118.85;56.60;;;17.70;99.90;;;;;;5135133;27;20047;-23
2023/07/10 00:52:20;;;;;;;145.18;60.65;;;17.80;99.90;;;;;;5135150;27;20086;-23
2023/07/10 00:54:52;;;;;;;130.00;55.38;;;17.70;99.90;;;;;;5093763;27;20058;-23
2023/07/10 00:57:35;;;;;;;125.43;57.20;;;17.50;99.90;;;;;;5132752;27;20396;-23
2023/07/10 01:00:19;;;;;;;115.18;53.67;;;17.40;99.90;;;;;;5133439;27;20074;-23
2023/07/10 01:02:45;;;;;;;101.80;52.20;;;17.40;99.90;;;;;;5135746;27;20039;-23
2023/07/10 01:05:11;;;;;;;119.38;55.60;;;17.30;99.90;;;;;;5134084;27;20477;-23
2023/07/10 01:07:41;;;;;;;122.20;57.42;;;17.20;99.90;;;;;;5133060;27;20043;-23
2023/07/10 01:10:10;;;;;;;155.75;67.43;;;17.20;99.90;;;;;;5133811;27;20497;-23
2023/07/10 01:12:37;;;;;;;132.07;62.50;;;17.00;99.90;;;;;;5135344;27;20054;-23
2023/07/10 01:15:04;;;;;;;141.35;67.05;;;17.00;99.90;;;;;;5134212;27;20085;-23
2023/07/10 01:17:30;;;;;;;138.27;64.55;;;16.90;99.90;;;;;;5132685;27;20104;-23
2023/07/10 01:20:02;;;;;;;151.88;70.18;;;17.00;99.90;;;;;;5133246;27;20047;-23
2023/07/10 01:22:29;;;;;;;142.07;63.95;;;16.80;99.90;;;;;;5133910;27;20041;-23
2023/07/10 01:24:55;;;;;;;101.63;55.17;;;16.90;99.90;;;;;;5115182;28;20397;-23
2023/07/10 01:27:22;;;;;;;278.20;86.85;;;16.90;99.90;;;;;;5132627;28;20047;-23
2023/07/10 01:29:56;;;;;;;123.43;63.97;;;16.70;99.90;;;;;;5133034;28;20039;-23
2023/07/10 01:32:24;;;;;;;181.18;77.07;;;17.20;99.90;;;;;;5133660;28;20123;-23
2023/07/10 01:34:53;;;;;;;175.00;75.78;;;17.30;99.90;;;;;;5134523;28;20073;-23
2023/07/10 01:37:19;;;;;;;263.50;89.25;;;17.10;99.90;;;;;;5133709;28;20047;-23
2023/07/10 01:39:48;;;;;;;1117.15;153.32;;;17.20;99.90;;;;;;5134489;28;20043;-23
2023/07/10 01:42:14;;;;;;;1033.25;136.25;;;17.10;99.90;;;;;;5135019;28;20073;-23
2023/07/10 01:44:42;;;;;;;780.38;121.38;;;16.90;99.90;;;;;;5134469;28;20054;-23
2023/07/10 01:47:10;;;;;;;354.40;93.05;;;16.70;99.90;;;;;;5116364;28;20054;-23
2023/07/10 01:49:38;;;;;;;236.13;79.22;;;16.50;99.90;;;;;;5134331;28;20047;-23
2023/07/10 01:52:08;;;;;;;425.55;105.72;;;16.80;99.90;;;;;;5134658;28;20047;-23
2023/07/10 01:54:34;;;;;;;332.33;97.30;;;16.70;99.90;;;;;;5114265;28;20105;-23
2023/07/10 01:57:00;;;;;;;816.22;152.32;;;16.70;99.90;;;;;;5113748;28;20043;-23
2023/07/10 01:59:26;;;;;;;534.58;127.40;;;16.50;99.90;;;;;;5096067;28;20044;-23
2023/07/10 02:01:54;;;;;;;681.28;140.40;;;16.70;99.90;;;;;;5126438;28;20044;-23
2023/07/10 02:04:20;;;;;;;753.05;141.82;;;16.70;99.90;;;;;;5134265;28;20082;-23
2023/07/10 02:06:46;;;;;;;535.38;128.60;;;16.40;99.90;;;;;;5133437;28;20075;-23
2023/07/10 02:09:11;;;;;;;364.85;107.65;;;16.60;99.90;;;;;;5115993;28;20050;-23
2023/07/10 02:11:37;;;;;;;260.85;98.90;;;16.50;99.90;;;;;;5133083;28;20397;-23
2023/07/10 02:14:04;;;;;;;320.73;109.05;;;16.30;99.90;;;;;;5133499;28;20051;-23
2023/07/10 02:16:30;;;;;;;245.88;88.90;;;16.40;99.90;;;;;;5134174;28;20076;-23
2023/07/10 02:18:56;;;;;;;249.82;92.88;;;16.50;99.90;;;;;;5133376;28;20043;-23
2023/07/10 02:21:22;;;;;;;201.25;83.97;;;16.30;99.90;;;;;;5132590;28;20074;-23
2023/07/10 02:23:48;;;;;;;378.20;114.80;;;16.30;99.90;;;;;;5114242;28;20488;-23
2023/07/10 02:26:15;;;;;;;353.88;114.70;;;16.20;99.90;;;;;;5133278;28;20192;-23
2023/07/10 02:28:41;;;;;;;593.13;147.65;;;16.60;99.90;;;;;;5116773;27;20043;-23
2023/07/10 02:31:07;;;;;;;542.03;134.43;;;16.70;99.90;;;;;;5135682;27;20050;-23
2023/07/10 02:33:33;;;;;;;244.38;96.22;;;16.50;99.90;;;;;;5137817;27;20047;-23
2023/07/10 02:36:00;;;;;;;173.80;85.45;;;16.80;99.90;;;;;;5137735;27;20049;-23
2023/07/10 02:38:26;;;;;;;139.25;71.95;;;16.40;99.90;;;;;;5137844;27;20415;-24
2023/07/10 02:40:52;;;;;;;169.20;82.07;;;16.40;99.90;;;;;;5137548;27;20055;-23
2023/07/10 02:43:17;;;;;;;146.55;76.20;;;16.60;99.90;;;;;;5136520;27;20125;-23
2023/07/10 02:45:44;;;;;;;141.77;70.18;;;16.50;99.90;;;;;;5119779;27;20134;-24
2023/07/10 02:48:10;;;;;;;172.60;79.28;;;16.50;99.90;;;;;;5137487;27;20050;-24
2023/07/10 02:50:35;;;;;;;142.73;74.22;;;16.60;99.90;;;;;;5137347;27;20035;-23
2023/07/10 02:53:01;;;;;;;137.82;62.20;;;16.60;99.90;;;;;;5137664;27;20054;-23
2023/07/10 02:55:27;;;;;;;160.23;70.60;;;16.50;99.90;;;;;;5137398;27;20058;-24
2023/07/10 02:57:53;;;;;;;175.32;75.82;;;16.70;99.90;;;;;;5137274;27;20043;-23
2023/07/10 03:00:19;;;;;;;126.28;63.13;;;16.50;99.90;;;;;;5136452;27;20047;-24
2023/07/10 03:02:44;;;;;;;114.78;59.53;;;16.50;99.90;;;;;;5136254;27;20125;-23
2023/07/10 03:05:10;;;;;;;119.00;62.17;;;16.30;99.90;;;;;;5137970;27;20047;-24
2023/07/10 03:07:36;;;;;;;149.15;68.80;;;16.50;99.90;;;;;;5136539;27;20050;-23
2023/07/10 03:10:02;;;;;;;117.90;63.05;;;16.30;99.90;;;;;;5137119;27;20051;-23
2023/07/10 03:12:27;;;;;;;101.38;57.70;;;16.40;99.90;;;;;;5135213;27;20047;-23
2023/07/10 03:14:53;;;;;;;99.43;56.92;;;16.30;99.90;;;;;;5118644;27;20481;-24
2023/07/10 03:17:19;;;;;;;105.88;57.92;;;16.50;99.90;;;;;;5136170;27;20099;-23
2023/07/10 03:19:46;;;;;;;114.35;64.00;;;16.60;99.90;;;;;;5118648;27;20046;-24
2023/07/10 03:22:12;;;;;;;132.65;70.00;;;16.90;99.90;;;;;;5136386;27;20126;-24
2023/07/10 03:24:39;;;;;;;129.02;67.07;;;16.60;99.90;;;;;;5099440;27;20168;-23
2023/07/10 03:27:05;;;;;;;147.38;69.82;;;16.90;99.90;;;;;;5100482;27;20047;-23
2023/07/10 03:29:31;;;;;;;100.85;57.33;;;16.60;99.90;;;;;;5116883;27;20035;-23
2023/07/10 03:31:57;;;;;;;98.80;57.45;;;16.80;99.90;;;;;;5117226;27;20050;-23
2023/07/10 03:34:22;;;;;;;105.25;57.58;;;16.60;99.90;;;;;;5133639;27;20099;-23
2023/07/10 03:36:50;;;;;;;71.32;45.30;;;17.00;99.90;;;;;;5117340;27;20050;-23
2023/07/10 03:39:16;;;;;;;81.47;47.28;;;17.00;99.90;;;;;;5135640;27;20051;-23
2023/07/10 03:41:41;;;;;;;59.45;40.30;;;17.00;99.90;;;;;;5136693;27;20096;-23
2023/07/10 03:44:10;;;;;;;51.28;35.75;;;16.80;99.90;;;;;;5136266;27;20388;-23
2023/07/10 03:46:36;;;;;;;44.88;32.60;;;17.00;99.90;;;;;;5136317;27;20050;-23
2023/07/10 03:49:03;;;;;;;45.78;29.92;;;16.90;99.90;;;;;;5136279;27;20496;-23
2023/07/10 03:51:28;;;;;;;42.55;30.67;;;17.00;99.90;;;;;;5117100;27;20059;-24
2023/07/10 03:53:54;;;;;;;46.90;29.98;;;16.70;99.90;;;;;;5118329;27;20043;-23
2023/07/10 03:56:20;;;;;;;39.42;27.63;;;16.90;99.90;;;;;;5136045;27;20553;-23
2023/07/10 03:58:46;;;;;;;40.10;28.30;;;16.90;99.90;;;;;;5136072;27;20050;-23
2023/07/10 04:01:13;;;;;;;36.08;25.23;;;16.90;99.90;;;;;;5135730;27;20397;-23
2023/07/10 04:03:39;;;;;;;33.40;22.30;;;16.80;99.90;;;;;;5135995;27;20126;-23
2023/07/10 04:06:07;;;;;;;35.95;25.30;;;16.80;99.90;;;;;;5117850;27;20047;-24
2023/07/10 04:08:36;;;;;;;27.30;22.17;;;16.70;99.90;;;;;;5135141;27;20130;-24
2023/07/10 04:11:16;;;;;;;27.80;20.60;;;16.80;99.90;;;;;;5135625;27;20080;-23
2023/07/10 04:13:42;;;;;;;30.15;21.13;;;16.70;99.90;;;;;;5135106;27;20063;-24
2023/07/10 04:16:22;;;;;;;26.35;18.45;;;16.70;99.90;;;;;;5135178;27;20389;-24
2023/07/10 04:18:50;;;;;;;25.67;21.25;;;16.80;99.90;;;;;;5097277;28;20570;-23
2023/07/10 04:21:24;;;;;;;30.83;20.17;;;16.80;99.90;;;;;;5127795;27;20043;-24
2023/07/10 04:23:51;;;;;;;25.73;17.25;;;16.80;99.90;;;;;;5133810;27;20047;-23
2023/07/10 04:26:29;;;;;;;19.92;14.80;;;16.90;99.90;;;;;;5135550;27;20035;-23
2023/07/10 04:28:56;;;;;;;17.00;13.00;;;17.00;99.90;;;;;;5134843;27;20114;-23
2023/07/10 04:31:23;;;;;;;16.55;11.18;;;17.10;99.90;;;;;;5133785;27;20399;-23
2023/07/10 04:33:50;;;;;;;17.02;12.32;;;17.30;99.90;;;;;;5133575;27;20058;-23
2023/07/10 04:36:16;;;;;;;16.08;10.25;;;17.30;99.90;;;;;;5133541;27;20070;-23
2023/07/10 04:38:41;;;;;;;14.00;11.30;;;17.50;99.90;;;;;;5134517;27;20085;-23
2023/07/10 04:41:10;;;;;;;20.55;13.20;;;17.50;99.90;;;;;;5133789;27;20054;-23
2023/07/10 04:43:36;;;;;;;14.30;11.20;;;17.50;99.90;;;;;;5135158;27;20074;-23
2023/07/10 04:46:05;;;;;;;15.77;11.57;;;17.60;99.90;;;;;;5135247;27;20164;-23
2023/07/10 04:48:32;;;;;;;20.25;12.65;;;17.60;99.90;;;;;;5134091;27;20493;-24
2023/07/10 04:51:03;;;;;;;19.13;12.60;;;17.60;99.90;;;;;;5094701;28;20055;-24
2023/07/10 04:53:30;;;;;;;21.75;11.88;;;17.60;99.90;;;;;;5126818;27;20412;-23
2023/07/10 04:55:56;;;;;;;14.52;10.45;;;17.70;99.90;;;;;;5133996;27;20043;-23
2023/07/10 04:58:23;;;;;;;14.20;11.35;;;17.70;99.90;;;;;;5134862;27;20039;-23
2023/07/10 05:00:57;;;;;;;16.98;11.77;;;17.70;99.90;;;;;;5134558;27;20054;-23
2023/07/10 05:03:24;;;;;;;13.63;11.07;;;17.70;99.90;;;;;;5135848;27;20040;-23
2023/07/10 05:05:57;;;;;;;16.60;10.77;;;17.70;99.90;;;;;;5133315;27;20123;-24
2023/07/10 05:08:25;;;;;;;15.35;10.70;;;17.70;99.90;;;;;;5133331;27;20068;-23
2023/07/10 05:10:54;;;;;;;13.98;9.88;;;17.70;99.90;;;;;;5135127;27;20419;-23
2023/07/10 05:13:22;;;;;;;16.73;10.82;;;17.70;99.90;;;;;;5134518;27;20099;-23
2023/07/10 05:15:48;;;;;;;12.60;9.50;;;17.80;99.90;;;;;;5133989;27;20075;-23
2023/07/10 05:18:15;;;;;;;11.85;8.48;;;17.80;99.90;;;;;;5133004;27;20111;-23
2023/07/10 05:20:44;;;;;;;11.68;8.52;;;17.90;99.90;;;;;;5134751;27;20047;-23
2023/07/10 05:23:10;;;;;;;9.05;7.97;;;18.00;99.90;;;;;;5132020;27;20043;-23
2023/07/10 05:25:36;;;;;;;11.20;7.93;;;18.00;99.90;;;;;;5132802;28;20035;-23
2023/07/10 05:28:02;;;;;;;11.27;7.03;;;18.10;99.90;;;;;;5132932;28;20047;-23
2023/07/10 05:30:29;;;;;;;11.57;7.43;;;18.00;99.90;;;;;;5133065;28;20493;-23
2023/07/10 05:32:55;;;;;;;10.02;6.63;;;18.10;99.90;;;;;;5132588;28;20138;-23
2023/07/10 05:35:21;;;;;;;11.48;7.03;;;18.10;99.90;;;;;;5132749;28;20047;-23
2023/07/10 05:37:48;;;;;;;12.27;7.25;;;18.20;99.90;;;;;;5132801;28;20043;-23
2023/07/10 05:40:14;;;;;;;12.35;6.50;;;18.20;99.90;;;;;;5115248;28;20042;-23
2023/07/10 05:42:39;;;;;;;10.70;5.03;;;18.20;99.90;;;;;;5134333;28;20044;-23
2023/07/10 05:45:06;;;;;;;11.85;4.97;;;18.10;99.90;;;;;;5116389;28;20070;-23
2023/07/10 05:47:32;;;;;;;11.63;5.57;;;18.10;99.90;;;;;;5116321;28;20134;-23
2023/07/10 05:49:58;;;;;;;10.85;5.63;;;18.00;99.90;;;;;;5134540;28;20144;-23
2023/07/10 05:52:24;;;;;;;9.32;4.90;;;18.10;99.90;;;;;;5115201;28;20052;-23
2023/07/10 05:54:49;;;;;;;12.52;4.57;;;18.00;99.90;;;;;;5116367;28;20039;-23
2023/07/10 05:57:15;;;;;;;7.70;4.95;;;18.00;99.90;;;;;;5134403;28;20043;-23
2023/07/10 05:59:41;;;;;;;7.40;4.70;;;18.00;99.90;;;;;;5098803;28;20054;-23
2023/07/10 06:02:11;;;;;;;9.63;4.90;;;18.10;99.90;;;;;;5134282;27;20049;-23
2023/07/10 06:04:37;;;;;;;9.10;5.05;;;18.10;99.90;;;;;;5119431;27;20126;-23
2023/07/10 06:07:04;;;;;;;11.43;5.88;;;18.10;99.90;;;;;;5138351;27;20092;-23
2023/07/10 06:09:30;;;;;;;8.77;4.88;;;18.20;99.90;;;;;;5137358;27;20519;-23
2023/07/10 06:11:56;;;;;;;11.77;5.63;;;18.20;99.90;;;;;;5100033;27;20087;-23
2023/07/10 06:14:22;;;;;;;11.05;6.03;;;18.40;99.90;;;;;;5137820;27;20508;-23
2023/07/10 06:16:47;;;;;;;8.15;5.07;;;18.80;99.90;;;;;;5131953;27;20478;-23
2023/07/10 06:19:13;;;;;;;9.18;5.05;;;19.20;99.90;;;;;;5118385;28;20044;-23
2023/07/10 06:21:39;;;;;;;10.40;5.20;;;19.10;99.90;;;;;;5117421;28;20044;-23
2023/07/10 06:24:06;;;;;;;8.98;4.43;;;19.60;99.90;;;;;;5118355;28;20104;-24
2023/07/10 06:26:31;;;;;;;10.82;5.13;;;20.10;99.90;;;;;;5137161;27;20099;-24
2023/07/10 06:28:57;;;;;;;14.90;5.22;;;20.50;99.90;;;;;;5137829;27;20047;-23
2023/07/10 06:31:23;;;;;;;10.70;5.18;;;20.70;99.90;;;;;;5102773;27;20078;-23
2023/07/10 06:33:50;;;;;;;11.40;4.30;;;20.80;63.20;;;;;;5137721;27;20047;-24
2023/07/10 06:36:16;;;;;;;14.40;4.55;;;21.10;1.00;;;;;;5137815;27;20148;-24
2023/07/10 06:38:41;;;;;;;12.57;4.30;;;21.30;1.00;;;;;;5137670;27;20484;-24
2023/07/10 06:41:09;;;;;;;13.93;3.88;;;21.40;99.90;;;;;;5119502;27;20047;-24
2023/07/10 06:43:35;;;;;;;12.38;4.95;;;21.50;99.90;;;;;;5119094;27;20130;-23
2023/07/10 06:46:04;;;;;;;13.75;3.95;;;21.80;99.90;;;;;;5137565;27;20050;-24
2023/07/10 06:48:30;;;;;;;10.52;3.63;;;22.00;99.90;;;;;;5137501;27;20039;-24
2023/07/10 06:50:56;;;;;;;11.25;3.45;;;21.90;36.90;;;;;;5118951;27;20118;-24
2023/07/10 06:53:23;;;;;;;7.88;3.00;;;21.60;1.00;;;;;;5137476;27;20510;-24
2023/07/10 06:55:53;;;;;;;6.88;3.30;;;21.70;1.00;;;;;;5137380;27;20108;-24
2023/07/10 06:58:19;;;;;;;10.13;3.60;;;21.70;99.90;;;;;;5137363;27;20046;-23
2023/07/10 07:00:45;;;;;;;15.18;3.78;;;22.00;1.00;;;;;;5136911;27;20473;-23
2023/07/10 07:03:10;;;;;;;7.32;2.75;;;21.80;99.90;;;;;;5135651;27;20039;-23
2023/07/10 07:05:36;;;;;;;12.40;2.80;;;21.50;99.90;;;;;;5116246;27;20120;-24
2023/07/10 07:08:03;;;;;;;11.90;3.33;;;21.50;1.00;;;;;;5118798;27;20053;-24
2023/07/10 07:10:29;;;;;;;5.97;2.40;;;21.70;99.90;;;;;;5136997;27;20054;-24
2023/07/10 07:12:55;;;;;;;6.93;3.17;;;21.90;99.90;;;;;;5137309;27;20050;-24
2023/07/10 07:15:21;;;;;;;12.15;3.33;;;22.10;99.90;;;;;;5137681;27;20043;-24
2023/07/10 07:17:47;;;;;;;11.23;3.42;;;22.00;99.90;;;;;;5102418;27;20453;-24
2023/07/10 07:20:12;;;;;;;9.60;3.25;;;22.40;1.00;;;;;;5101893;27;20039;-24
2023/07/10 07:22:38;;;;;;;7.35;2.45;;;22.50;1.00;;;;;;5135985;27;20039;-24
2023/07/10 07:25:04;;;;;;;9.48;3.55;;;22.50;1.00;;;;;;5115888;27;20043;-24
2023/07/10 07:27:31;;;;;;;7.38;2.40;;;22.80;1.00;;;;;;5114852;28;20055;-24
2023/07/10 07:29:57;;;;;;;10.40;2.70;;;22.90;69.60;;;;;;5127677;27;20118;-24
2023/07/10 07:32:24;;;;;;;12.52;3.38;;;22.90;99.90;;;;;;5117521;27;20172;-24
2023/07/10 07:34:49;;;;;;;10.52;2.30;;;22.60;69.30;;;;;;5118878;27;20046;-24
2023/07/10 07:37:16;;;;;;;8.38;2.60;;;22.60;1.00;;;;;;5135404;27;20042;-24
2023/07/10 07:39:41;;;;;;;9.77;2.70;;;22.70;99.90;;;;;;5099727;27;20043;-24
2023/07/10 07:42:09;;;;;;;9.20;2.67;;;22.80;29.60;;;;;;5136267;27;20057;-24
2023/07/10 07:44:34;;;;;;;10.65;2.78;;;22.90;49.10;;;;;;5136390;27;20054;-24
2023/07/10 07:47:00;;;;;;;6.55;3.20;;;23.20;1.00;;;;;;5130273;27;20048;-24
2023/07/10 07:49:26;;;;;;;9.50;3.08;;;23.20;1.00;;;;;;5116374;28;20043;-24
2023/07/10 07:51:52;;;;;;;12.55;3.13;;;22.90;1.00;;;;;;5115724;28;20126;-24
2023/07/10 07:54:18;;;;;;;7.60;2.53;;;22.90;99.90;;;;;;5097696;28;20047;-24
2023/07/10 07:56:44;;;;;;;12.82;3.53;;;22.90;99.90;;;;;;5115405;27;20059;-24
2023/07/10 07:59:10;;;;;;;8.65;3.10;;;22.70;99.90;;;;;;5117216;27;20051;-24
2023/07/10 08:01:36;;;;;;;6.72;2.60;;;22.50;99.90;;;;;;5135957;27;20039;-24
2023/07/10 08:04:03;;;;;;;7.60;2.53;;;22.70;1.00;;;;;;5136066;27;20051;-24
2023/07/10 08:06:31;;;;;;;6.72;2.47;;;23.20;99.90;;;;;;5135978;27;20107;-24
2023/07/10 08:08:56;;;;;;;9.77;2.95;;;23.30;99.90;;;;;;5116796;27;20078;-24
2023/07/10 08:11:22;;;;;;;7.72;2.33;;;23.50;46.90;;;;;;5135867;27;20492;-24
2023/07/10 08:13:49;;;;;;;8.60;2.28;;;23.40;99.90;;;;;;5117332;27;20547;-24
2023/07/10 08:16:15;;;;;;;7.03;2.53;;;23.00;99.90;;;;;;5117752;27;20046;-24
2023/07/10 08:18:41;;;;;;;8.27;2.58;;;22.30;1.00;;;;;;5134738;27;20118;-23
2023/07/10 08:21:09;;;;;;;7.72;2.50;;;22.10;68.30;;;;;;5135637;27;20473;-25
2023/07/10 08:23:35;;;;;;;10.95;3.05;;;22.40;1.00;;;;;;5117569;27;20047;-24
2023/07/10 08:26:02;;;;;;;7.90;2.45;;;22.50;1.00;;;;;;5134714;27;20103;-24
2023/07/10 08:28:28;;;;;;;10.00;2.60;;;23.10;99.90;;;;;;5114964;27;20046;-24
2023/07/10 08:30:54;;;;;;;11.25;3.28;;;23.50;99.90;;;;;;5116352;27;20136;-24
2023/07/10 08:33:19;;;;;;;7.28;2.15;;;23.80;99.90;;;;;;5135047;27;20045;-25
2023/07/10 08:35:59;;;;;;;11.93;2.70;;;23.60;1.00;;;;;;5124406;27;20040;-25
2023/07/10 08:38:25;;;;;;;7.47;2.38;;;23.00;1.00;;;;;;5097007;28;20039;-26
2023/07/10 08:40:54;;;;;;;6.63;2.30;;;23.20;90.90;;;;;;5101986;27;20054;-24
2023/07/10 08:43:26;;;;;;;8.70;2.72;;;23.30;1.00;;;;;;5135794;27;20039;-25
2023/07/10 08:46:16;;;;;;;12.32;3.25;;;23.30;1.00;;;;;;5135189;27;20389;-24
2023/07/10 08:48:57;;;;;;;10.95;2.80;;;24.20;1.00;;;;;;5132337;27;20103;-24
2023/07/10 08:51:50;;;;;;;7.25;2.67;;;24.20;99.90;;;;;;5135141;27;20481;-26
2023/07/10 08:54:18;;;;;;;9.43;2.15;;;24.20;1.00;;;;;;5117046;27;20087;-25
2023/07/10 08:57:22;;;;;;;7.15;2.33;;;23.50;99.90;;;;;;5135612;27;20049;-25
2023/07/10 09:00:13;;;;;;;11.40;3.03;;;23.80;99.90;;;;;;5134425;27;20103;-26
2023/07/10 09:02:44;;;;;;;12.43;2.92;;;23.90;1.00;;;;;;5135546;27;20046;-25
2023/07/10 09:05:19;;;;;;;9.07;2.67;;;23.60;99.90;;;;;;5135236;27;20086;-26
2023/07/10 09:07:45;;;;;;;10.05;2.83;;;23.60;99.90;;;;;;5134063;27;20742;-24
2023/07/10 09:10:22;;;;;;;11.27;2.88;;;23.60;99.90;;;;;;5133335;27;20481;-25
2023/07/10 09:12:56;;;;;;;8.38;2.80;;;23.90;99.90;;;;;;5135453;27;20043;-25
2023/07/10 09:15:36;;;;;;;11.63;2.92;;;23.90;99.90;;;;;;5100321;27;20105;-26
2023/07/10 09:18:24;;;;;;;7.88;1.77;;;23.70;99.90;;;;;;5117346;27;20526;-26
2023/07/10 09:20:56;;;;;;;9.30;3.10;;;23.60;79.00;;;;;;5097131;28;20051;-26
2023/07/10 09:23:26;;;;;;;6.75;2.38;;;24.20;99.90;;;;;;5114147;28;20055;-26
2023/07/10 09:25:55;;;;;;;14.73;3.08;;;24.50;1.00;;;;;;5114425;28;20078;-26
2023/07/10 09:28:26;;;;;;;9.43;2.80;;;24.90;1.00;;;;;;5130146;28;20087;-24
2023/07/10 09:30:57;;;;;;;14.75;3.63;;;24.70;99.90;;;;;;5130844;28;20043;-26
2023/07/10 09:33:37;;;;;;;11.07;2.97;;;24.80;99.90;;;;;;5134576;28;20043;-26
2023/07/10 09:36:11;;;;;;;23.00;4.43;;;25.00;1.00;;;;;;5134644;28;20043;-26
2023/07/10 09:38:36;;;;;;;18.80;3.80;;;25.30;60.20;;;;;;5085360;27;20094;-26
2023/07/10 09:41:11;;;;;;;15.93;4.28;;;25.60;1.00;;;;;;5133632;27;20469;-26
2023/07/10 09:43:38;;;;;;;13.77;2.92;;;25.80;99.90;;;;;;5135688;27;20045;-27
2023/07/10 09:46:04;;;;;;;14.75;3.78;;;25.10;99.90;;;;;;5120645;27;20043;-26
2023/07/10 09:48:30;;;;;;;10.27;3.25;;;24.70;99.90;;;;;;5103624;27;20050;-26
2023/07/10 09:50:56;;;;;;;13.75;2.85;;;24.10;99.90;;;;;;5137646;27;20081;-26
2023/07/10 09:53:28;;;;;;;13.57;4.75;;;24.50;1.00;;;;;;5138602;27;20043;-26
2023/07/10 09:55:53;;;;;;;14.63;3.47;;;24.60;99.90;;;;;;5137155;27;20050;-24
2023/07/10 09:58:19;;;;;;;14.05;3.53;;;24.20;1.00;;;;;;5138393;27;20122;-26
2023/07/10 10:00:45;;;;;;;14.52;3.00;;;23.60;1.00;;;;;;5138464;27;20047;-26
2023/07/10 10:03:45;;;;;;;11.57;3.25;;;23.20;99.90;;;;;;5138223;27;20035;-26
2023/07/10 10:06:26;;;;;;;10.07;3.03;;;22.60;99.90;;;;;;5116010;28;20066;-25
2023/07/10 10:08:52;;;;;;;10.45;3.28;;;22.00;99.90;;;;;;5117514;28;20484;-26
2023/07/10 10:11:34;;;;;;;12.13;2.80;;;22.50;99.90;;;;;;5117619;28;20138;-25
2023/07/10 10:14:03;;;;;;;12.52;3.08;;;23.20;95.30;;;;;;5100502;28;20063;-27
2023/07/10 10:16:55;;;;;;;16.38;3.35;;;23.40;99.90;;;;;;5138164;27;20489;-26
2023/07/10 10:19:33;;;;;;;5.65;2.08;;;23.50;1.00;;;;;;5138230;27;20047;-26
2023/07/10 10:21:59;;;;;;;11.07;3.03;;;24.20;99.90;;;;;;5139212;27;20448;-25
2023/07/10 10:24:29;;;;;;;11.48;2.50;;;24.10;96.70;;;;;;5137302;27;20078;-26
2023/07/10 10:27:19;;;;;;;8.95;2.22;;;24.50;99.90;;;;;;5120163;27;20122;-26
2023/07/10 10:30:04;;;;;;;10.15;2.38;;;24.70;99.90;;;;;;5137982;27;20093;-27
2023/07/10 10:32:54;;;;;;;8.85;2.67;;;24.60;99.90;;;;;;5117354;27;20431;-26
2023/07/10 10:35:23;;;;;;;10.63;3.25;;;23.90;99.90;;;;;;5137865;27;20430;-26
2023/07/10 10:37:54;;;;;;;14.38;2.97;;;23.30;1.00;;;;;;5138286;27;20050;-26
2023/07/10 10:40:36;;;;;;;11.70;3.10;;;22.90;99.90;;;;;;5119666;27;20082;-26
2023/07/10 10:43:36;;;;;;;13.40;3.17;;;23.00;1.00;;;;;;5135750;27;20043;-26
2023/07/10 10:46:07;;;;;;;12.35;2.78;;;22.90;99.90;;;;;;5120109;27;20054;-26
2023/07/10 10:49:02;;;;;;;15.45;3.10;;;22.90;99.90;;;;;;5136494;27;20058;-27
2023/07/10 10:51:42;;;;;;;9.85;2.67;;;22.50;99.90;;;;;;5106117;27;20055;-26
2023/07/10 10:54:27;;;;;;;13.35;3.38;;;22.50;1.00;;;;;;5137542;27;20124;-25
2023/07/10 10:57:27;;;;;;;9.38;3.00;;;22.90;99.90;;;;;;5136655;27;20194;-26
2023/07/10 11:00:29;;;;;;;8.73;2.40;;;22.70;29.10;;;;;;5114934;27;20055;-26
2023/07/10 11:03:33;;;;;;;7.18;2.13;;;23.60;99.90;;;;;;5137304;27;20047;-26
2023/07/10 11:06:21;;;;;;;13.90;2.95;;;24.40;99.90;;;;;;5084639;27;20605;-26
2023/07/10 11:08:50;;;;;;;8.52;2.10;;;24.80;1.00;;;;;;5137030;27;20047;-26
2023/07/10 11:11:25;;;;;;;12.50;2.58;;;24.90;35.40;;;;;;5136988;27;20080;-28
2023/07/10 11:13:51;;;;;;;8.73;2.53;;;25.10;1.00;;;;;;5136382;27;20122;-26
2023/07/10 11:16:17;;;;;;;9.23;2.50;;;25.20;1.00;;;;;;5101967;27;20051;-26
2023/07/10 11:18:44;;;;;;;9.00;2.35;;;25.40;16.30;;;;;;5118849;27;20055;-26
2023/07/10 11:21:10;;;;;;;7.07;2.05;;;25.90;1.00;;;;;;5136940;27;20083;-27
2023/07/10 11:23:45;;;;;;;8.93;2.65;;;26.20;99.90;;;;;;5136881;27;20051;-27
2023/07/10 11:26:17;;;;;;;10.13;2.35;;;26.10;99.90;;;;;;5137151;27;20499;-26
2023/07/10 11:28:58;;;;;;;5.93;1.83;;;25.80;99.90;;;;;;5136773;27;20093;-26
2023/07/10 11:31:32;;;;;;;9.35;1.98;;;25.30;93.60;;;;;;5136114;27;20051;-26
2023/07/10 11:34:07;;;;;;;7.57;1.75;;;25.40;99.90;;;;;;5136551;27;20130;-26
2023/07/10 11:36:41;;;;;;;8.60;1.73;;;25.40;99.90;;;;;;5136873;27;20047;-26
2023/07/10 11:39:08;;;;;;;10.18;1.95;;;25.40;99.90;;;;;;5136609;27;20054;-26
2023/07/10 11:41:43;;;;;;;9.00;1.83;;;25.50;1.00;;;;;;5136414;27;20049;-26
2023/07/10 11:44:39;;;;;;;7.20;2.00;;;25.90;1.00;;;;;;5136345;27;20095;-26
2023/07/10 11:47:05;;;;;;;7.88;1.63;;;25.60;1.00;;;;;;5136349;27;20538;-27
2023/07/10 11:49:54;;;;;;;7.60;1.83;;;25.00;99.90;;;;;;5135517;27;20043;-26
2023/07/10 11:52:20;;;;;;;8.70;1.92;;;24.50;1.00;;;;;;5136371;27;20116;-27
2023/07/10 11:54:48;;;;;;;7.72;2.05;;;24.10;99.90;;;;;;5117559;27;20418;-26
2023/07/10 11:57:37;;;;;;;8.35;1.95;;;23.80;99.90;;;;;;5134606;27;20072;-26
2023/07/10 12:00:13;;;;;;;5.20;1.77;;;23.10;99.90;;;;;;5128182;27;20058;-26
2023/07/10 12:02:43;;;;;;;7.55;1.83;;;22.80;1.00;;;;;;5117237;27;20479;-27
2023/07/10 12:05:37;;;;;;;8.95;2.15;;;23.10;99.90;;;;;;5116992;27;20103;-27
2023/07/10 12:08:15;;;;;;;9.00;2.00;;;23.40;99.90;;;;;;5089191;27;20054;-26
2023/07/10 12:10:50;;;;;;;7.78;1.98;;;23.90;99.90;;;;;;5133725;27;20039;-27
2023/07/10 12:13:29;;;;;;;8.60;1.92;;;23.70;1.00;;;;;;5136766;27;20082;-26
2023/07/10 12:15:58;;;;;;;6.35;1.83;;;23.60;1.00;;;;;;5101037;27;20100;-26
2023/07/10 12:18:38;;;;;;;6.88;1.90;;;23.90;99.90;;;;;;5134276;27;20050;-26
2023/07/10 12:21:25;;;;;;;10.55;2.08;;;23.40;1.00;;;;;;5135816;27;20039;-26
2023/07/10 12:23:59;;;;;;;6.55;1.35;;;23.70;1.00;;;;;;5135216;27;20051;-27
2023/07/10 12:26:25;;;;;;;4.57;1.45;;;23.90;1.00;;;;;;5100886;27;20059;-27
2023/07/10 12:28:57;;;;;;;5.93;1.25;;;24.60;99.90;;;;;;5116621;27;20047;-27
2023/07/10 12:31:24;;;;;;;10.38;2.13;;;25.10;1.00;;;;;;5135557;27;20121;-26
2023/07/10 12:33:51;;;;;;;7.43;1.98;;;25.20;1.00;;;;;;5117341;27;20062;-27
2023/07/10 12:36:27;;;;;;;4.25;1.05;;;24.90;1.00;;;;;;5117159;27;20039;-26
2023/07/10 12:38:58;;;;;;;6.15;1.75;;;25.00;1.00;;;;;;5135165;27;20038;-25
2023/07/10 12:41:25;;;;;;;5.60;1.20;;;25.40;72.50;;;;;;5114756;28;20157;-27
2023/07/10 12:43:55;;;;;;;6.47;1.17;;;25.50;99.90;;;;;;5114765;28;20281;-28
2023/07/10 12:46:28;;;;;;;5.30;1.50;;;25.60;24.30;;;;;;5114782;28;20083;-27
2023/07/10 12:49:00;;;;;;;6.22;1.48;;;25.60;90.10;;;;;;5079555;28;20047;-27
2023/07/10 12:51:36;;;;;;;8.13;1.65;;;25.10;99.90;;;;;;5131943;27;20043;-27